sensor_id;sensor_type;location;lat;lon;timestamp;temperature;humidity
67748;HTU21D;54543;50.712;6.070;2022-07-22T00:02:16;16.67;88.12
67748;HTU21D;54543;50.712;6.070;2022-07-22T00:04:42;16.69;88.17
67748;HTU21D;54543;50.712;6.070;2022-07-22T00:07:07;16.66;88.32
67748;HTU21D;54543;50.712;6.070;2022-07-22T00:09:33;16.66;88.34
67748;HTU21D;54543;50.712;6.070;2022-07-22T00:11:59;16.63;88.29
67748;HTU21D;54543;50.712;6.070;2022-07-22T00:14:25;16.62;88.30
67748;HTU21D;54543;50.712;6.070;2022-07-22T00:16:51;16.62;88.34
67748;HTU21D;54543;50.712;6.070;2022-07-22T00:19:17;16.63;88.30
67748;HTU21D;54543;50.712;6.070;2022-07-22T00:21:42;16.64;88.26
67748;HTU21D;54543;50.712;6.070;2022-07-22T00:24:08;16.69;88.22
67748;HTU21D;54543;50.712;6.070;2022-07-22T00:26:34;16.66;88.02
67748;HTU21D;54543;50.712;6.070;2022-07-22T00:29:00;16.64;88.04
67748;HTU21D;54543;50.712;6.070;2022-07-22T00:31:26;16.64;87.96
67748;HTU21D;54543;50.712;6.070;2022-07-22T00:33:52;16.61;87.92
67748;HTU21D;54543;50.712;6.070;2022-07-22T00:36:17;16.61;88.02
67748;HTU21D;54543;50.712;6.070;2022-07-22T00:38:43;16.58;87.94
67748;HTU21D;54543;50.712;6.070;2022-07-22T00:41:09;16.59;87.98
67748;HTU21D;54543;50.712;6.070;2022-07-22T00:43:57;16.57;88.13
67748;HTU21D;54543;50.712;6.070;2022-07-22T00:46:23;16.56;88.01
67748;HTU21D;54543;50.712;6.070;2022-07-22T00:48:49;16.55;87.90
67748;HTU21D;54543;50.712;6.070;2022-07-22T00:51:17;16.54;87.83
67748;HTU21D;54543;50.712;6.070;2022-07-22T00:53:43;16.52;87.90
67748;HTU21D;54543;50.712;6.070;2022-07-22T00:56:09;16.52;87.95
67748;HTU21D;54543;50.712;6.070;2022-07-22T00:58:35;16.52;87.95
67748;HTU21D;54543;50.712;6.070;2022-07-22T01:01:00;16.54;87.93
67748;HTU21D;54543;50.712;6.070;2022-07-22T01:03:26;16.55;87.80
67748;HTU21D;54543;50.712;6.070;2022-07-22T01:05:52;16.55;87.65
67748;HTU21D;54543;50.712;6.070;2022-07-22T01:08:17;16.51;87.66
67748;HTU21D;54543;50.712;6.070;2022-07-22T01:10:43;16.50;87.63
67748;HTU21D;54543;50.712;6.070;2022-07-22T01:13:09;16.48;87.57
67748;HTU21D;54543;50.712;6.070;2022-07-22T01:15:34;16.46;87.55
67748;HTU21D;54543;50.712;6.070;2022-07-22T01:18:00;16.47;87.50
67748;HTU21D;54543;50.712;6.070;2022-07-22T01:20:26;16.46;87.59
67748;HTU21D;54543;50.712;6.070;2022-07-22T01:22:52;16.44;87.61
67748;HTU21D;54543;50.712;6.070;2022-07-22T01:25:18;16.47;87.57
67748;HTU21D;54543;50.712;6.070;2022-07-22T01:27:43;16.47;87.57
67748;HTU21D;54543;50.712;6.070;2022-07-22T01:30:09;16.47;87.46
67748;HTU21D;54543;50.712;6.070;2022-07-22T01:32:35;16.46;87.41
67748;HTU21D;54543;50.712;6.070;2022-07-22T01:35:01;16.45;87.51
67748;HTU21D;54543;50.712;6.070;2022-07-22T01:37:26;16.46;87.57
67748;HTU21D;54543;50.712;6.070;2022-07-22T01:39:52;16.46;87.58
67748;HTU21D;54543;50.712;6.070;2022-07-22T01:42:18;16.49;87.56
67748;HTU21D;54543;50.712;6.070;2022-07-22T01:44:43;16.50;87.51
67748;HTU21D;54543;50.712;6.070;2022-07-22T01:47:09;16.48;87.49
67748;HTU21D;54543;50.712;6.070;2022-07-22T01:49:36;16.49;87.48
67748;HTU21D;54543;50.712;6.070;2022-07-22T01:52:03;16.47;87.70
67748;HTU21D;54543;50.712;6.070;2022-07-22T01:54:28;16.43;87.51
67748;HTU21D;54543;50.712;6.070;2022-07-22T01:56:54;16.37;87.66
67748;HTU21D;54543;50.712;6.070;2022-07-22T01:59:19;16.39;87.70
67748;HTU21D;54543;50.712;6.070;2022-07-22T02:01:45;16.39;87.64
67748;HTU21D;54543;50.712;6.070;2022-07-22T02:04:11;16.37;87.60
67748;HTU21D;54543;50.712;6.070;2022-07-22T02:06:36;16.34;87.60
67748;HTU21D;54543;50.712;6.070;2022-07-22T02:09:02;16.35;87.72
67748;HTU21D;54543;50.712;6.070;2022-07-22T02:11:28;16.37;87.79
67748;HTU21D;54543;50.712;6.070;2022-07-22T02:13:53;16.41;87.63
67748;HTU21D;54543;50.712;6.070;2022-07-22T02:16:19;16.43;87.41
67748;HTU21D;54543;50.712;6.070;2022-07-22T02:18:45;16.45;87.25
67748;HTU21D;54543;50.712;6.070;2022-07-22T02:21:10;16.45;87.24
67748;HTU21D;54543;50.712;6.070;2022-07-22T02:23:36;16.47;87.11
67748;HTU21D;54543;50.712;6.070;2022-07-22T02:26:02;16.49;86.99
67748;HTU21D;54543;50.712;6.070;2022-07-22T02:28:27;16.45;86.72
67748;HTU21D;54543;50.712;6.070;2022-07-22T02:30:53;16.41;86.86
67748;HTU21D;54543;50.712;6.070;2022-07-22T02:33:19;16.41;86.93
67748;HTU21D;54543;50.712;6.070;2022-07-22T02:35:45;16.44;87.08
67748;HTU21D;54543;50.712;6.070;2022-07-22T02:38:10;16.45;86.96
67748;HTU21D;54543;50.712;6.070;2022-07-22T02:40:36;16.47;86.87
67748;HTU21D;54543;50.712;6.070;2022-07-22T02:43:02;16.49;86.84
67748;HTU21D;54543;50.712;6.070;2022-07-22T02:45:28;16.51;86.74
67748;HTU21D;54543;50.712;6.070;2022-07-22T02:47:55;16.54;86.69
67748;HTU21D;54543;50.712;6.070;2022-07-22T02:50:21;16.55;86.69
67748;HTU21D;54543;50.712;6.070;2022-07-22T02:52:47;16.56;86.67
67748;HTU21D;54543;50.712;6.070;2022-07-22T02:55:13;16.57;86.64
67748;HTU21D;54543;50.712;6.070;2022-07-22T02:57:39;16.58;86.57
67748;HTU21D;54543;50.712;6.070;2022-07-22T03:00:09;16.60;86.51
67748;HTU21D;54543;50.712;6.070;2022-07-22T03:02:36;16.60;86.41
67748;HTU21D;54543;50.712;6.070;2022-07-22T03:05:03;16.60;86.32
67748;HTU21D;54543;50.712;6.070;2022-07-22T03:07:29;16.60;86.33
67748;HTU21D;54543;50.712;6.070;2022-07-22T03:09:54;16.58;86.36
67748;HTU21D;54543;50.712;6.070;2022-07-22T03:12:20;16.57;86.38
67748;HTU21D;54543;50.712;6.070;2022-07-22T03:14:46;16.59;86.36
67748;HTU21D;54543;50.712;6.070;2022-07-22T03:17:11;16.58;86.13
67748;HTU21D;54543;50.712;6.070;2022-07-22T03:19:36;16.55;86.20
67748;HTU21D;54543;50.712;6.070;2022-07-22T03:22:02;16.52;86.03
67748;HTU21D;54543;50.712;6.070;2022-07-22T03:24:28;16.51;86.06
67748;HTU21D;54543;50.712;6.070;2022-07-22T03:26:53;16.50;86.04
67748;HTU21D;54543;50.712;6.070;2022-07-22T03:29:18;16.49;86.04
67748;HTU21D;54543;50.712;6.070;2022-07-22T03:31:44;16.50;86.05
67748;HTU21D;54543;50.712;6.070;2022-07-22T03:34:09;16.51;85.90
67748;HTU21D;54543;50.712;6.070;2022-07-22T03:36:35;16.49;85.63
67748;HTU21D;54543;50.712;6.070;2022-07-22T03:39:01;16.48;85.26
67748;HTU21D;54543;50.712;6.070;2022-07-22T03:41:26;16.45;85.22
67748;HTU21D;54543;50.712;6.070;2022-07-22T03:43:52;16.44;85.48
67748;HTU21D;54543;50.712;6.070;2022-07-22T03:46:17;16.44;85.38
67748;HTU21D;54543;50.712;6.070;2022-07-22T03:48:43;16.43;85.28
67748;HTU21D;54543;50.712;6.070;2022-07-22T03:51:09;16.42;85.26
67748;HTU21D;54543;50.712;6.070;2022-07-22T03:53:34;16.42;85.19
67748;HTU21D;54543;50.712;6.070;2022-07-22T03:56:00;16.41;85.26
67748;HTU21D;54543;50.712;6.070;2022-07-22T03:58:26;16.40;85.09
67748;HTU21D;54543;50.712;6.070;2022-07-22T04:00:53;16.39;85.11
67748;HTU21D;54543;50.712;6.070;2022-07-22T04:03:19;16.36;85.22
67748;HTU21D;54543;50.712;6.070;2022-07-22T04:05:45;16.34;85.44
67748;HTU21D;54543;50.712;6.070;2022-07-22T04:08:12;16.35;85.26
67748;HTU21D;54543;50.712;6.070;2022-07-22T04:10:37;16.39;85.16
67748;HTU21D;54543;50.712;6.070;2022-07-22T04:13:04;16.41;85.11
67748;HTU21D;54543;50.712;6.070;2022-07-22T04:15:30;16.40;84.96
67748;HTU21D;54543;50.712;6.070;2022-07-22T04:17:55;16.42;84.82
67748;HTU21D;54543;50.712;6.070;2022-07-22T04:20:21;16.39;85.01
67748;HTU21D;54543;50.712;6.070;2022-07-22T04:22:47;16.36;85.03
67748;HTU21D;54543;50.712;6.070;2022-07-22T04:25:12;16.39;84.85
67748;HTU21D;54543;50.712;6.070;2022-07-22T04:27:38;16.37;84.86
67748;HTU21D;54543;50.712;6.070;2022-07-22T04:30:04;16.37;84.99
67748;HTU21D;54543;50.712;6.070;2022-07-22T04:32:30;16.36;84.94
67748;HTU21D;54543;50.712;6.070;2022-07-22T04:34:55;16.39;84.95
67748;HTU21D;54543;50.712;6.070;2022-07-22T04:37:21;16.40;85.09
67748;HTU21D;54543;50.712;6.070;2022-07-22T04:39:46;16.43;85.47
67748;HTU21D;54543;50.712;6.070;2022-07-22T04:42:12;16.45;85.08
67748;HTU21D;54543;50.712;6.070;2022-07-22T04:44:37;16.44;84.88
67748;HTU21D;54543;50.712;6.070;2022-07-22T04:47:03;16.45;85.02
67748;HTU21D;54543;50.712;6.070;2022-07-22T04:49:28;16.46;84.97
67748;HTU21D;54543;50.712;6.070;2022-07-22T04:51:54;16.48;85.03
67748;HTU21D;54543;50.712;6.070;2022-07-22T04:54:20;16.50;85.00
67748;HTU21D;54543;50.712;6.070;2022-07-22T04:56:46;16.50;85.13
67748;HTU21D;54543;50.712;6.070;2022-07-22T04:59:11;16.56;84.84
67748;HTU21D;54543;50.712;6.070;2022-07-22T05:01:37;16.58;84.88
67748;HTU21D;54543;50.712;6.070;2022-07-22T05:04:03;16.61;84.84
67748;HTU21D;54543;50.712;6.070;2022-07-22T05:06:28;16.60;84.84
67748;HTU21D;54543;50.712;6.070;2022-07-22T05:08:55;16.59;85.09
67748;HTU21D;54543;50.712;6.070;2022-07-22T05:11:20;16.61;85.20
67748;HTU21D;54543;50.712;6.070;2022-07-22T05:13:46;16.63;85.25
67748;HTU21D;54543;50.712;6.070;2022-07-22T05:16:11;16.69;85.29
67748;HTU21D;54543;50.712;6.070;2022-07-22T05:18:37;16.76;85.26
67748;HTU21D;54543;50.712;6.070;2022-07-22T05:21:04;16.82;85.05
67748;HTU21D;54543;50.712;6.070;2022-07-22T05:23:30;16.87;84.64
67748;HTU21D;54543;50.712;6.070;2022-07-22T05:25:56;16.84;84.28
67748;HTU21D;54543;50.712;6.070;2022-07-22T05:28:21;16.82;84.21
67748;HTU21D;54543;50.712;6.070;2022-07-22T05:30:47;16.80;84.13
67748;HTU21D;54543;50.712;6.070;2022-07-22T05:33:13;16.76;84.19
67748;HTU21D;54543;50.712;6.070;2022-07-22T05:35:38;16.71;84.10
67748;HTU21D;54543;50.712;6.070;2022-07-22T05:38:03;16.67;84.20
67748;HTU21D;54543;50.712;6.070;2022-07-22T05:40:31;16.66;84.31
67748;HTU21D;54543;50.712;6.070;2022-07-22T05:42:57;16.66;84.22
67748;HTU21D;54543;50.712;6.070;2022-07-22T05:45:23;16.65;84.33
67748;HTU21D;54543;50.712;6.070;2022-07-22T05:47:48;16.64;84.34
67748;HTU21D;54543;50.712;6.070;2022-07-22T05:50:14;16.64;84.45
67748;HTU21D;54543;50.712;6.070;2022-07-22T05:52:39;16.70;84.60
67748;HTU21D;54543;50.712;6.070;2022-07-22T05:55:06;16.77;84.61
67748;HTU21D;54543;50.712;6.070;2022-07-22T05:57:32;16.85;84.68
67748;HTU21D;54543;50.712;6.070;2022-07-22T05:59:58;16.91;84.52
67748;HTU21D;54543;50.712;6.070;2022-07-22T06:02:23;16.99;84.45
67748;HTU21D;54543;50.712;6.070;2022-07-22T06:04:49;17.08;84.35
67748;HTU21D;54543;50.712;6.070;2022-07-22T06:07:14;17.16;84.26
67748;HTU21D;54543;50.712;6.070;2022-07-22T06:09:40;17.25;84.03
67748;HTU21D;54543;50.712;6.070;2022-07-22T06:12:06;17.36;83.57
67748;HTU21D;54543;50.712;6.070;2022-07-22T06:14:32;17.45;83.50
67748;HTU21D;54543;50.712;6.070;2022-07-22T06:16:57;17.54;83.37
67748;HTU21D;54543;50.712;6.070;2022-07-22T06:19:23;17.67;82.97
67748;HTU21D;54543;50.712;6.070;2022-07-22T06:21:50;17.82;82.67
67748;HTU21D;54543;50.712;6.070;2022-07-22T06:24:15;17.95;81.83
67748;HTU21D;54543;50.712;6.070;2022-07-22T06:26:41;18.02;80.83
67748;HTU21D;54543;50.712;6.070;2022-07-22T06:29:06;17.97;80.49
67748;HTU21D;54543;50.712;6.070;2022-07-22T06:31:32;17.93;80.62
67748;HTU21D;54543;50.712;6.070;2022-07-22T06:33:57;17.88;80.71
67748;HTU21D;54543;50.712;6.070;2022-07-22T06:36:23;17.80;80.72
67748;HTU21D;54543;50.712;6.070;2022-07-22T06:38:48;17.70;80.36
67748;HTU21D;54543;50.712;6.070;2022-07-22T06:41:14;17.68;80.52
67748;HTU21D;54543;50.712;6.070;2022-07-22T06:43:43;17.70;80.62
67748;HTU21D;54543;50.712;6.070;2022-07-22T06:46:09;17.72;80.78
67748;HTU21D;54543;50.712;6.070;2022-07-22T06:48:34;17.76;80.77
67748;HTU21D;54543;50.712;6.070;2022-07-22T06:51:00;17.82;80.56
67748;HTU21D;54543;50.712;6.070;2022-07-22T06:53:26;17.88;80.40
67748;HTU21D;54543;50.712;6.070;2022-07-22T06:55:51;17.92;80.25
67748;HTU21D;54543;50.712;6.070;2022-07-22T06:58:17;17.99;80.24
67748;HTU21D;54543;50.712;6.070;2022-07-22T07:00:42;18.06;80.20
67748;HTU21D;54543;50.712;6.070;2022-07-22T07:03:08;18.17;80.00
67748;HTU21D;54543;50.712;6.070;2022-07-22T07:05:34;18.32;79.66
67748;HTU21D;54543;50.712;6.070;2022-07-22T07:07:59;18.43;79.02
67748;HTU21D;54543;50.712;6.070;2022-07-22T07:10:25;18.59;78.35
67748;HTU21D;54543;50.712;6.070;2022-07-22T07:12:55;18.65;77.41
67748;HTU21D;54543;50.712;6.070;2022-07-22T07:15:21;18.63;78.05
67748;HTU21D;54543;50.712;6.070;2022-07-22T07:17:46;18.66;78.24
67748;HTU21D;54543;50.712;6.070;2022-07-22T07:20:12;18.69;78.27
67748;HTU21D;54543;50.712;6.070;2022-07-22T07:22:37;18.72;78.08
67748;HTU21D;54543;50.712;6.070;2022-07-22T07:25:07;18.77;78.03
67748;HTU21D;54543;50.712;6.070;2022-07-22T07:27:33;18.80;78.11
67748;HTU21D;54543;50.712;6.070;2022-07-22T07:29:59;18.85;78.10
67748;HTU21D;54543;50.712;6.070;2022-07-22T07:32:24;18.92;77.90
67748;HTU21D;54543;50.712;6.070;2022-07-22T07:34:50;18.96;77.75
67748;HTU21D;54543;50.712;6.070;2022-07-22T07:37:16;18.99;77.37
67748;HTU21D;54543;50.712;6.070;2022-07-22T07:39:41;19.06;77.27
67748;HTU21D;54543;50.712;6.070;2022-07-22T07:42:07;19.11;77.17
67748;HTU21D;54543;50.712;6.070;2022-07-22T07:44:33;19.12;77.13
67748;HTU21D;54543;50.712;6.070;2022-07-22T07:46:58;19.21;77.21
67748;HTU21D;54543;50.712;6.070;2022-07-22T07:49:24;19.31;77.05
67748;HTU21D;54543;50.712;6.070;2022-07-22T07:51:49;19.40;76.60
67748;HTU21D;54543;50.712;6.070;2022-07-22T07:54:15;19.43;76.09
67748;HTU21D;54543;50.712;6.070;2022-07-22T07:56:41;19.41;75.88
67748;HTU21D;54543;50.712;6.070;2022-07-22T07:59:06;19.44;75.97
67748;HTU21D;54543;50.712;6.070;2022-07-22T08:01:32;19.51;75.47
67748;HTU21D;54543;50.712;6.070;2022-07-22T08:03:58;19.62;75.22
67748;HTU21D;54543;50.712;6.070;2022-07-22T08:06:24;19.77;75.00
67748;HTU21D;54543;50.712;6.070;2022-07-22T08:08:49;19.96;74.64
67748;HTU21D;54543;50.712;6.070;2022-07-22T08:11:15;20.15;74.05
67748;HTU21D;54543;50.712;6.070;2022-07-22T08:13:40;20.25;73.82
67748;HTU21D;54543;50.712;6.070;2022-07-22T08:16:06;20.30;73.72
67748;HTU21D;54543;50.712;6.070;2022-07-22T08:18:32;20.39;72.94
67748;HTU21D;54543;50.712;6.070;2022-07-22T08:20:58;20.30;72.63
67748;HTU21D;54543;50.712;6.070;2022-07-22T08:23:24;20.22;72.78
67748;HTU21D;54543;50.712;6.070;2022-07-22T08:25:49;20.20;73.15
67748;HTU21D;54543;50.712;6.070;2022-07-22T08:28:15;20.22;73.23
67748;HTU21D;54543;50.712;6.070;2022-07-22T08:30:41;20.24;72.98
67748;HTU21D;54543;50.712;6.070;2022-07-22T08:33:08;20.29;72.19
67748;HTU21D;54543;50.712;6.070;2022-07-22T08:35:34;20.43;71.92
67748;HTU21D;54543;50.712;6.070;2022-07-22T08:38:00;20.61;72.03
67748;HTU21D;54543;50.712;6.070;2022-07-22T08:40:26;20.85;71.17
67748;HTU21D;54543;50.712;6.070;2022-07-22T08:42:51;21.14;70.64
67748;HTU21D;54543;50.712;6.070;2022-07-22T08:45:18;21.47;69.74
67748;HTU21D;54543;50.712;6.070;2022-07-22T08:47:48;21.68;68.10
67748;HTU21D;54543;50.712;6.070;2022-07-22T08:50:15;21.80;68.65
67748;HTU21D;54543;50.712;6.070;2022-07-22T08:52:40;21.87;68.39
67748;HTU21D;54543;50.712;6.070;2022-07-22T08:55:07;21.97;68.25
67748;HTU21D;54543;50.712;6.070;2022-07-22T08:57:33;22.19;67.86
67748;HTU21D;54543;50.712;6.070;2022-07-22T09:00:01;22.31;67.02
67748;HTU21D;54543;50.712;6.070;2022-07-22T09:02:27;22.36;66.34
67748;HTU21D;54543;50.712;6.070;2022-07-22T09:07:30;22.42;66.14
67748;HTU21D;54543;50.712;6.070;2022-07-22T09:09:57;22.50;66.47
67748;HTU21D;54543;50.712;6.070;2022-07-22T09:12:22;22.55;66.17
67748;HTU21D;54543;50.712;6.070;2022-07-22T09:14:53;22.61;64.96
67748;HTU21D;54543;50.712;6.070;2022-07-22T09:17:35;22.68;64.64
67748;HTU21D;54543;50.712;6.070;2022-07-22T09:20:05;22.72;65.20
67748;HTU21D;54543;50.712;6.070;2022-07-22T09:22:45;22.78;64.50
67748;HTU21D;54543;50.712;6.070;2022-07-22T09:25:18;22.78;59.59
67748;HTU21D;54543;50.712;6.070;2022-07-22T09:27:45;22.71;65.17
67748;HTU21D;54543;50.712;6.070;2022-07-22T09:30:31;22.69;62.52
67748;HTU21D;54543;50.712;6.070;2022-07-22T09:32:56;22.75;65.24
67748;HTU21D;54543;50.712;6.070;2022-07-22T09:35:23;22.83;65.09
67748;HTU21D;54543;50.712;6.070;2022-07-22T09:37:53;22.94;64.74
67748;HTU21D;54543;50.712;6.070;2022-07-22T09:40:30;22.99;62.97
67748;HTU21D;54543;50.712;6.070;2022-07-22T09:42:58;22.93;63.91
67748;HTU21D;54543;50.712;6.070;2022-07-22T09:45:26;22.92;64.21
67748;HTU21D;54543;50.712;6.070;2022-07-22T09:47:54;23.02;64.12
67748;HTU21D;54543;50.712;6.070;2022-07-22T09:50:31;23.14;63.63
67748;HTU21D;54543;50.712;6.070;2022-07-22T09:52:58;23.28;63.82
67748;HTU21D;54543;50.712;6.070;2022-07-22T09:55:26;23.38;63.60
67748;HTU21D;54543;50.712;6.070;2022-07-22T09:57:53;23.45;62.73
67748;HTU21D;54543;50.712;6.070;2022-07-22T10:00:22;23.50;63.06
67748;HTU21D;54543;50.712;6.070;2022-07-22T10:02:56;23.58;61.28
67748;HTU21D;54543;50.712;6.070;2022-07-22T10:05:30;23.60;61.91
67748;HTU21D;54543;50.712;6.070;2022-07-22T10:07:56;23.59;62.84
67748;HTU21D;54543;50.712;6.070;2022-07-22T10:10:26;23.57;61.83
67748;HTU21D;54543;50.712;6.070;2022-07-22T10:12:53;23.55;62.64
67748;HTU21D;54543;50.712;6.070;2022-07-22T10:15:21;23.62;62.21
67748;HTU21D;54543;50.712;6.070;2022-07-22T10:17:49;23.54;62.08
67748;HTU21D;54543;50.712;6.070;2022-07-22T10:20:20;23.43;62.03
67748;HTU21D;54543;50.712;6.070;2022-07-22T10:22:51;23.50;62.60
67748;HTU21D;54543;50.712;6.070;2022-07-22T10:25:18;23.50;60.96
67748;HTU21D;54543;50.712;6.070;2022-07-22T10:27:57;23.41;62.01
67748;HTU21D;54543;50.712;6.070;2022-07-22T10:30:42;23.42;61.67
67748;HTU21D;54543;50.712;6.070;2022-07-22T10:33:15;23.51;61.54
67748;HTU21D;54543;50.712;6.070;2022-07-22T10:38:09;23.67;61.07
67748;HTU21D;54543;50.712;6.070;2022-07-22T10:40:54;23.80;57.69
67748;HTU21D;54543;50.712;6.070;2022-07-22T10:45:57;23.98;59.86
67748;HTU21D;54543;50.712;6.070;2022-07-22T10:53:45;24.28;58.41
67748;HTU21D;54543;50.712;6.070;2022-07-22T10:56:24;24.41;55.74
67748;HTU21D;54543;50.712;6.070;2022-07-22T10:59:10;24.45;57.77
67748;HTU21D;54543;50.712;6.070;2022-07-22T11:01:40;24.53;59.18
67748;HTU21D;54543;50.712;6.070;2022-07-22T11:04:24;24.62;57.41
67748;HTU21D;54543;50.712;6.070;2022-07-22T11:06:52;24.63;59.27
67748;HTU21D;54543;50.712;6.070;2022-07-22T11:09:21;24.64;59.08
67748;HTU21D;54543;50.712;6.070;2022-07-22T11:11:54;24.71;59.14
67748;HTU21D;54543;50.712;6.070;2022-07-22T11:14:27;24.73;57.87
67748;HTU21D;54543;50.712;6.070;2022-07-22T11:16:56;24.76;58.59
67748;HTU21D;54543;50.712;6.070;2022-07-22T11:19:24;24.82;58.87
67748;HTU21D;54543;50.712;6.070;2022-07-22T11:21:53;24.95;58.41
67748;HTU21D;54543;50.712;6.070;2022-07-22T11:24:19;25.03;58.64
67748;HTU21D;54543;50.712;6.070;2022-07-22T11:26:50;25.09;56.02
67748;HTU21D;54543;50.712;6.070;2022-07-22T11:29:26;25.17;58.20
67748;HTU21D;54543;50.712;6.070;2022-07-22T11:31:57;25.23;58.30
67748;HTU21D;54543;50.712;6.070;2022-07-22T11:34:23;25.38;58.30
67748;HTU21D;54543;50.712;6.070;2022-07-22T11:36:50;25.45;57.77
67748;HTU21D;54543;50.712;6.070;2022-07-22T11:39:23;25.46;56.76
67748;HTU21D;54543;50.712;6.070;2022-07-22T11:41:51;25.50;57.07
67748;HTU21D;54543;50.712;6.070;2022-07-22T11:44:22;25.57;55.50
67748;HTU21D;54543;50.712;6.070;2022-07-22T11:46:49;25.58;57.15
67748;HTU21D;54543;50.712;6.070;2022-07-22T11:49:16;25.51;57.40
67748;HTU21D;54543;50.712;6.070;2022-07-22T11:51:42;25.58;57.42
67748;HTU21D;54543;50.712;6.070;2022-07-22T11:54:08;25.61;57.22
67748;HTU21D;54543;50.712;6.070;2022-07-22T11:56:34;25.68;57.00
67748;HTU21D;54543;50.712;6.070;2022-07-22T11:59:00;25.79;57.29
67748;HTU21D;54543;50.712;6.070;2022-07-22T12:01:31;25.91;57.01
67748;HTU21D;54543;50.712;6.070;2022-07-22T12:04:03;25.94;55.87
67748;HTU21D;54543;50.712;6.070;2022-07-22T12:06:30;25.95;55.87
67748;HTU21D;54543;50.712;6.070;2022-07-22T12:11:34;26.05;56.81
67748;HTU21D;54543;50.712;6.070;2022-07-22T12:14:11;26.11;51.79
67748;HTU21D;54543;50.712;6.070;2022-07-22T12:16:37;26.07;56.39
67748;HTU21D;54543;50.712;6.070;2022-07-22T12:19:09;26.04;56.76
67748;HTU21D;54543;50.712;6.070;2022-07-22T12:21:52;26.09;55.65
67748;HTU21D;54543;50.712;6.070;2022-07-22T12:24:44;26.10;52.47
67748;HTU21D;54543;50.712;6.070;2022-07-22T12:27:15;26.23;55.39
67748;HTU21D;54543;50.712;6.070;2022-07-22T12:29:47;26.38;55.00
67748;HTU21D;54543;50.712;6.070;2022-07-22T12:32:23;26.49;53.52
67748;HTU21D;54543;50.712;6.070;2022-07-22T12:35:03;26.57;52.43
67748;HTU21D;54543;50.712;6.070;2022-07-22T12:37:34;26.69;55.55
67748;HTU21D;54543;50.712;6.070;2022-07-22T12:40:10;26.77;51.10
67748;HTU21D;54543;50.712;6.070;2022-07-22T12:42:41;26.83;55.54
67748;HTU21D;54543;50.712;6.070;2022-07-22T12:45:12;26.80;54.97
67748;HTU21D;54543;50.712;6.070;2022-07-22T12:50:38;26.84;50.97
67748;HTU21D;54543;50.712;6.070;2022-07-22T12:53:06;26.92;55.23
67748;HTU21D;54543;50.712;6.070;2022-07-22T12:55:34;27.02;54.68
67748;HTU21D;54543;50.712;6.070;2022-07-22T12:58:00;26.98;54.61
67748;HTU21D;54543;50.712;6.070;2022-07-22T13:00:31;27.07;54.37
67748;HTU21D;54543;50.712;6.070;2022-07-22T13:02:57;27.20;54.80
67748;HTU21D;54543;50.712;6.070;2022-07-22T13:05:23;27.28;54.23
67748;HTU21D;54543;50.712;6.070;2022-07-22T13:07:50;27.29;54.19
67748;HTU21D;54543;50.712;6.070;2022-07-22T13:10:19;27.36;54.07
67748;HTU21D;54543;50.712;6.070;2022-07-22T13:12:45;27.45;53.51
67748;HTU21D;54543;50.712;6.070;2022-07-22T13:15:11;27.43;53.22
67748;HTU21D;54543;50.712;6.070;2022-07-22T13:17:37;27.39;53.38
67748;HTU21D;54543;50.712;6.070;2022-07-22T13:20:04;27.28;53.85
67748;HTU21D;54543;50.712;6.070;2022-07-22T13:22:29;27.21;53.98
67748;HTU21D;54543;50.712;6.070;2022-07-22T13:24:55;27.24;54.17
67748;HTU21D;54543;50.712;6.070;2022-07-22T13:27:21;27.38;53.70
67748;HTU21D;54543;50.712;6.070;2022-07-22T13:29:46;27.47;53.68
67748;HTU21D;54543;50.712;6.070;2022-07-22T13:32:12;27.61;53.05
67748;HTU21D;54543;50.712;6.070;2022-07-22T13:34:38;27.61;53.25
67748;HTU21D;54543;50.712;6.070;2022-07-22T13:37:03;27.61;53.60
67748;HTU21D;54543;50.712;6.070;2022-07-22T13:39:29;27.71;53.44
67748;HTU21D;54543;50.712;6.070;2022-07-22T13:41:54;27.79;53.23
67748;HTU21D;54543;50.712;6.070;2022-07-22T13:44:20;27.81;53.07
67748;HTU21D;54543;50.712;6.070;2022-07-22T13:46:45;27.89;53.00
67748;HTU21D;54543;50.712;6.070;2022-07-22T13:49:12;27.95;52.96
67748;HTU21D;54543;50.712;6.070;2022-07-22T13:51:37;28.06;52.67
67748;HTU21D;54543;50.712;6.070;2022-07-22T13:54:03;28.17;52.40
67748;HTU21D;54543;50.712;6.070;2022-07-22T13:56:31;28.23;51.50
67748;HTU21D;54543;50.712;6.070;2022-07-22T13:58:57;28.18;52.04
67748;HTU21D;54543;50.712;6.070;2022-07-22T14:01:23;28.15;50.91
67748;HTU21D;54543;50.712;6.070;2022-07-22T14:03:49;28.11;51.78
67748;HTU21D;54543;50.712;6.070;2022-07-22T14:06:14;28.12;51.74
67748;HTU21D;54543;50.712;6.070;2022-07-22T14:08:40;28.18;51.75
67748;HTU21D;54543;50.712;6.070;2022-07-22T14:11:06;28.27;51.39
67748;HTU21D;54543;50.712;6.070;2022-07-22T14:13:31;28.27;51.02
67748;HTU21D;54543;50.712;6.070;2022-07-22T14:15:57;28.30;51.14
67748;HTU21D;54543;50.712;6.070;2022-07-22T14:18:42;28.30;51.06
67748;HTU21D;54543;50.712;6.070;2022-07-22T14:21:08;28.28;51.15
67748;HTU21D;54543;50.712;6.070;2022-07-22T14:23:33;28.17;51.24
67748;HTU21D;54543;50.712;6.070;2022-07-22T14:25:59;28.08;51.45
67748;HTU21D;54543;50.712;6.070;2022-07-22T14:28:25;28.01;51.56
67748;HTU21D;54543;50.712;6.070;2022-07-22T14:30:50;28.06;51.58
67748;HTU21D;54543;50.712;6.070;2022-07-22T14:33:16;28.16;51.32
67748;HTU21D;54543;50.712;6.070;2022-07-22T14:35:41;28.19;51.01
67748;HTU21D;54543;50.712;6.070;2022-07-22T14:38:07;28.15;50.90
67748;HTU21D;54543;50.712;6.070;2022-07-22T14:40:33;28.05;51.19
67748;HTU21D;54543;50.712;6.070;2022-07-22T14:42:58;28.04;51.19
67748;HTU21D;54543;50.712;6.070;2022-07-22T14:45:24;27.99;51.08
67748;HTU21D;54543;50.712;6.070;2022-07-22T14:47:49;27.90;50.94
67748;HTU21D;54543;50.712;6.070;2022-07-22T14:50:15;27.81;51.89
67748;HTU21D;54543;50.712;6.070;2022-07-22T14:52:41;27.93;52.63
67748;HTU21D;54543;50.712;6.070;2022-07-22T14:55:06;28.13;52.94
67748;HTU21D;54543;50.712;6.070;2022-07-22T14:57:32;28.42;52.58
67748;HTU21D;54543;50.712;6.070;2022-07-22T14:59:57;28.74;52.65
67748;HTU21D;54543;50.712;6.070;2022-07-22T15:02:23;29.05;52.85
67748;HTU21D;54543;50.712;6.070;2022-07-22T15:04:50;29.43;52.57
67748;HTU21D;54543;50.712;6.070;2022-07-22T15:07:15;29.68;51.91
67748;HTU21D;54543;50.712;6.070;2022-07-22T15:09:41;29.91;52.01
67748;HTU21D;54543;50.712;6.070;2022-07-22T15:12:07;30.11;51.79
67748;HTU21D;54543;50.712;6.070;2022-07-22T15:14:33;30.31;51.39
67748;HTU21D;54543;50.712;6.070;2022-07-22T15:16:58;30.54;51.41
67748;HTU21D;54543;50.712;6.070;2022-07-22T15:19:24;30.84;51.40
67748;HTU21D;54543;50.712;6.070;2022-07-22T15:21:49;31.14;50.87
67748;HTU21D;54543;50.712;6.070;2022-07-22T15:24:15;31.40;50.37
67748;HTU21D;54543;50.712;6.070;2022-07-22T15:26:40;31.55;49.69
67748;HTU21D;54543;50.712;6.070;2022-07-22T15:29:06;31.63;49.40
67748;HTU21D;54543;50.712;6.070;2022-07-22T15:31:31;31.73;49.09
67748;HTU21D;54543;50.712;6.070;2022-07-22T15:33:58;31.95;48.47